This is the latest recevied weather packets stored in our database for station/object IZ1HMT-3. If no packets are shown the sender has not sent any weather packets the latest 10 day(s).
| Time | Temp. | Humidity | Pressure | Rain* | Wind** | Luminosity | Snow |
|---|---|---|---|---|---|---|---|
| 1787592887 | 30° C | 48% | 1013.9 hPa | - | - | - | - |
| 1787592283 | 30° C | 48% | 1014.1 hPa | - | - | - | - |
| 1787591679 | 30° C | 48% | 1014.2 hPa | - | - | - | - |
| 1787591075 | 30° C | 47% | 1014.2 hPa | - | - | - | - |
| 1787590471 | 30° C | 47% | 1014.4 hPa | - | - | - | - |
| 1787589866 | 30.56° C | 45% | 1014.6 hPa | - | - | - | - |
| 1787588658 | 30.56° C | 45% | 1014.7 hPa | - | - | - | - |
| 1787588054 | 31.11° C | 44% | 1014.9 hPa | - | - | - | - |
| 1787586846 | 31.67° C | 43% | 1015.2 hPa | - | - | - | - |
| 1787586243 | 31.67° C | 42% | 1015 hPa | - | - | - | - |
| 1787585035 | 31.11° C | 44% | 1015.2 hPa | - | - | - | - |
| 1787583828 | 31.67° C | 43% | 1015 hPa | - | - | - | - |
| 1787582620 | 31.67° C | 43% | 1015.6 hPa | - | - | - | - |
| 1787582017 | 31.67° C | 43% | 1015.7 hPa | - | - | - | - |
| 1787580809 | 32.22° C | 41% | 1015.8 hPa | - | - | - | - |
| 1787580206 | 32.78° C | 41% | 1016 hPa | - | - | - | - |
| 1787579602 | 33.33° C | 38% | 1016.1 hPa | - | - | - | - |
| 1787578998 | 34.44° C | 39% | 1016.3 hPa | - | - | - | - |
| 1787578395 | 33.33° C | 41% | 1016.2 hPa | - | - | - | - |
| 1787577792 | 33.33° C | 44% | 1016.3 hPa | - | - | - | - |
| 1787577188 | 32.22° C | 47% | 1016.4 hPa | - | - | - | - |
| 1787576588 | 32.22° C | 49% | 1016.5 hPa | - | - | - | - |
| 1787575980 | 32.78° C | 47% | 1016.4 hPa | - | - | - | - |
| 1787575376 | 33.33° C | 42% | 1016.5 hPa | - | - | - | - |
| 1787574167 | 33.33° C | 42% | 1016.7 hPa | - | - | - | - |
* Rain since midnight (hover to see other rain measurements)
** Current wind speed in m/s (hover to see current wind gust speed)